sensor_id;sensor_type;location;lat;lon;timestamp;P1;durP1;ratioP1;P2;durP2;ratioP2
21091;SDS011;10704;42.678;23.288;2023-05-10T00:01:30;11.93;;;7.85;;
21091;SDS011;10704;42.678;23.288;2023-05-10T00:03:56;12.65;;;7.80;;
21091;SDS011;10704;42.678;23.288;2023-05-10T00:06:22;12.93;;;9.00;;
21091;SDS011;10704;42.678;23.288;2023-05-10T00:08:47;14.30;;;8.40;;
21091;SDS011;10704;42.678;23.288;2023-05-10T00:11:13;13.70;;;8.57;;
21091;SDS011;10704;42.678;23.288;2023-05-10T00:13:39;12.63;;;8.85;;
21091;SDS011;10704;42.678;23.288;2023-05-10T00:16:05;13.05;;;8.77;;
21091;SDS011;10704;42.678;23.288;2023-05-10T00:18:31;13.35;;;8.32;;
21091;SDS011;10704;42.678;23.288;2023-05-10T00:20:57;11.95;;;8.07;;
21091;SDS011;10704;42.678;23.288;2023-05-10T00:23:23;13.20;;;8.93;;
21091;SDS011;10704;42.678;23.288;2023-05-10T00:25:50;12.38;;;8.32;;
21091;SDS011;10704;42.678;23.288;2023-05-10T00:28:15;12.57;;;8.55;;
21091;SDS011;10704;42.678;23.288;2023-05-10T00:30:41;12.23;;;8.85;;
21091;SDS011;10704;42.678;23.288;2023-05-10T00:33:07;12.75;;;8.88;;
21091;SDS011;10704;42.678;23.288;2023-05-10T00:35:33;12.65;;;9.23;;
21091;SDS011;10704;42.678;23.288;2023-05-10T00:37:59;13.93;;;8.90;;
21091;SDS011;10704;42.678;23.288;2023-05-10T00:40:25;16.40;;;9.13;;
21091;SDS011;10704;42.678;23.288;2023-05-10T00:42:55;14.98;;;10.07;;
21091;SDS011;10704;42.678;23.288;2023-05-10T00:45:22;13.88;;;9.85;;
21091;SDS011;10704;42.678;23.288;2023-05-10T00:47:49;17.10;;;9.82;;
21091;SDS011;10704;42.678;23.288;2023-05-10T00:50:17;13.25;;;9.18;;
21091;SDS011;10704;42.678;23.288;2023-05-10T00:52:43;15.05;;;10.38;;
21091;SDS011;10704;42.678;23.288;2023-05-10T00:55:09;15.23;;;10.55;;
21091;SDS011;10704;42.678;23.288;2023-05-10T00:57:37;14.15;;;10.00;;
21091;SDS011;10704;42.678;23.288;2023-05-10T01:00:03;13.63;;;10.45;;
21091;SDS011;10704;42.678;23.288;2023-05-10T01:02:30;14.07;;;10.63;;
21091;SDS011;10704;42.678;23.288;2023-05-10T01:04:55;15.93;;;10.45;;
21091;SDS011;10704;42.678;23.288;2023-05-10T01:07:22;14.40;;;9.95;;
21091;SDS011;10704;42.678;23.288;2023-05-10T01:09:48;15.38;;;10.77;;
21091;SDS011;10704;42.678;23.288;2023-05-10T01:12:14;14.98;;;10.93;;
21091;SDS011;10704;42.678;23.288;2023-05-10T01:14:40;16.17;;;11.55;;
21091;SDS011;10704;42.678;23.288;2023-05-10T01:17:06;16.00;;;11.20;;
21091;SDS011;10704;42.678;23.288;2023-05-10T01:19:34;17.88;;;10.85;;
21091;SDS011;10704;42.678;23.288;2023-05-10T01:46:31;10.63;;;8.43;;
21091;SDS011;10704;42.678;23.288;2023-05-10T01:49:01;12.07;;;7.93;;
21091;SDS011;10704;42.678;23.288;2023-05-10T01:51:37;10.85;;;8.02;;
21091;SDS011;10704;42.678;23.288;2023-05-10T01:54:06;10.30;;;7.28;;
21091;SDS011;10704;42.678;23.288;2023-05-10T01:56:35;8.90;;;6.55;;
21091;SDS011;10704;42.678;23.288;2023-05-10T01:59:05;9.68;;;6.88;;
21091;SDS011;10704;42.678;23.288;2023-05-10T02:01:36;9.00;;;6.78;;
21091;SDS011;10704;42.678;23.288;2023-05-10T02:04:04;10.70;;;6.40;;
21091;SDS011;10704;42.678;23.288;2023-05-10T02:06:32;8.68;;;6.68;;
21091;SDS011;10704;42.678;23.288;2023-05-10T02:09:00;9.27;;;6.30;;
21091;SDS011;10704;42.678;23.288;2023-05-10T02:11:29;8.60;;;6.05;;
21091;SDS011;10704;42.678;23.288;2023-05-10T02:13:56;10.00;;;6.25;;
21091;SDS011;10704;42.678;23.288;2023-05-10T02:16:26;8.10;;;6.03;;
21091;SDS011;10704;42.678;23.288;2023-05-10T02:18:55;7.95;;;5.40;;
21091;SDS011;10704;42.678;23.288;2023-05-10T02:21:24;8.25;;;5.78;;
21091;SDS011;10704;42.678;23.288;2023-05-10T02:23:52;7.60;;;5.95;;
21091;SDS011;10704;42.678;23.288;2023-05-10T02:26:20;8.85;;;6.05;;
21091;SDS011;10704;42.678;23.288;2023-05-10T02:28:49;7.97;;;5.65;;
21091;SDS011;10704;42.678;23.288;2023-05-10T02:31:17;8.32;;;5.53;;
21091;SDS011;10704;42.678;23.288;2023-05-10T02:33:44;8.85;;;4.85;;
21091;SDS011;10704;42.678;23.288;2023-05-10T02:36:11;9.07;;;4.95;;
21091;SDS011;10704;42.678;23.288;2023-05-10T02:38:38;8.35;;;5.03;;
21091;SDS011;10704;42.678;23.288;2023-05-10T02:41:05;8.68;;;4.78;;
21091;SDS011;10704;42.678;23.288;2023-05-10T02:43:33;8.15;;;4.80;;
21091;SDS011;10704;42.678;23.288;2023-05-10T02:46:00;8.32;;;5.13;;
21091;SDS011;10704;42.678;23.288;2023-05-10T02:48:27;9.15;;;4.93;;
21091;SDS011;10704;42.678;23.288;2023-05-10T02:50:53;10.00;;;5.15;;
21091;SDS011;10704;42.678;23.288;2023-05-10T02:53:30;7.47;;;4.97;;
21091;SDS011;10704;42.678;23.288;2023-05-10T02:56:06;9.95;;;6.00;;
21091;SDS011;10704;42.678;23.288;2023-05-10T02:58:38;8.95;;;5.43;;
21091;SDS011;10704;42.678;23.288;2023-05-10T03:01:04;8.40;;;5.47;;
21091;SDS011;10704;42.678;23.288;2023-05-10T03:03:30;9.38;;;5.72;;
21091;SDS011;10704;42.678;23.288;2023-05-10T03:05:56;9.57;;;5.38;;
21091;SDS011;10704;42.678;23.288;2023-05-10T03:08:23;8.52;;;6.15;;
21091;SDS011;10704;42.678;23.288;2023-05-10T03:11:02;9.23;;;5.65;;
21091;SDS011;10704;42.678;23.288;2023-05-10T03:13:50;9.90;;;6.10;;
21091;SDS011;10704;42.678;23.288;2023-05-10T03:16:32;9.98;;;6.22;;
21091;SDS011;10704;42.678;23.288;2023-05-10T03:21:41;10.57;;;6.05;;
21091;SDS011;10704;42.678;23.288;2023-05-10T03:24:12;10.23;;;6.05;;
21091;SDS011;10704;42.678;23.288;2023-05-10T03:26:42;7.68;;;5.35;;
21091;SDS011;10704;42.678;23.288;2023-05-10T03:29:13;9.90;;;5.78;;
21091;SDS011;10704;42.678;23.288;2023-05-10T03:31:40;8.95;;;5.70;;
21091;SDS011;10704;42.678;23.288;2023-05-10T03:34:06;8.55;;;5.35;;
21091;SDS011;10704;42.678;23.288;2023-05-10T03:36:33;9.05;;;5.22;;
21091;SDS011;10704;42.678;23.288;2023-05-10T03:38:58;9.80;;;5.82;;
21091;SDS011;10704;42.678;23.288;2023-05-10T03:41:25;8.60;;;5.60;;
21091;SDS011;10704;42.678;23.288;2023-05-10T03:43:51;11.27;;;6.10;;
21091;SDS011;10704;42.678;23.288;2023-05-10T03:46:17;7.68;;;5.43;;
21091;SDS011;10704;42.678;23.288;2023-05-10T03:48:45;9.82;;;5.85;;
21091;SDS011;10704;42.678;23.288;2023-05-10T03:51:10;7.00;;;4.72;;
21091;SDS011;10704;42.678;23.288;2023-05-10T03:53:37;8.52;;;4.85;;
21091;SDS011;10704;42.678;23.288;2023-05-10T03:56:03;8.40;;;5.53;;
21091;SDS011;10704;42.678;23.288;2023-05-10T03:58:29;8.65;;;4.93;;
21091;SDS011;10704;42.678;23.288;2023-05-10T04:00:54;8.95;;;5.25;;
21091;SDS011;10704;42.678;23.288;2023-05-10T04:03:21;10.15;;;4.95;;
21091;SDS011;10704;42.678;23.288;2023-05-10T04:05:47;9.35;;;5.30;;
21091;SDS011;10704;42.678;23.288;2023-05-10T04:08:12;11.02;;;5.75;;
21091;SDS011;10704;42.678;23.288;2023-05-10T04:10:41;7.05;;;4.78;;
21091;SDS011;10704;42.678;23.288;2023-05-10T04:13:07;9.20;;;5.22;;
21091;SDS011;10704;42.678;23.288;2023-05-10T04:15:33;8.70;;;5.28;;
21091;SDS011;10704;42.678;23.288;2023-05-10T04:17:59;9.00;;;5.60;;
21091;SDS011;10704;42.678;23.288;2023-05-10T04:20:25;9.27;;;5.18;;
21091;SDS011;10704;42.678;23.288;2023-05-10T04:22:51;9.10;;;5.75;;
21091;SDS011;10704;42.678;23.288;2023-05-10T04:25:17;12.60;;;6.13;;
21091;SDS011;10704;42.678;23.288;2023-05-10T04:27:43;9.98;;;5.72;;
21091;SDS011;10704;42.678;23.288;2023-05-10T04:30:09;9.35;;;5.82;;
21091;SDS011;10704;42.678;23.288;2023-05-10T04:32:35;9.43;;;6.22;;
21091;SDS011;10704;42.678;23.288;2023-05-10T04:35:01;9.70;;;5.57;;
21091;SDS011;10704;42.678;23.288;2023-05-10T04:37:28;9.40;;;5.50;;
21091;SDS011;10704;42.678;23.288;2023-05-10T04:39:54;9.25;;;5.80;;
21091;SDS011;10704;42.678;23.288;2023-05-10T04:42:20;9.13;;;5.40;;
21091;SDS011;10704;42.678;23.288;2023-05-10T04:44:45;9.60;;;6.13;;
21091;SDS011;10704;42.678;23.288;2023-05-10T04:47:12;12.75;;;5.95;;
21091;SDS011;10704;42.678;23.288;2023-05-10T04:49:38;8.50;;;5.90;;
21091;SDS011;10704;42.678;23.288;2023-05-10T04:52:04;9.10;;;5.93;;
21091;SDS011;10704;42.678;23.288;2023-05-10T04:54:29;12.35;;;6.63;;
21091;SDS011;10704;42.678;23.288;2023-05-10T04:56:55;10.00;;;6.53;;
21091;SDS011;10704;42.678;23.288;2023-05-10T04:59:21;12.00;;;6.30;;
21091;SDS011;10704;42.678;23.288;2023-05-10T05:01:47;8.98;;;6.50;;
21091;SDS011;10704;42.678;23.288;2023-05-10T05:04:13;10.77;;;7.30;;
21091;SDS011;10704;42.678;23.288;2023-05-10T05:06:39;13.82;;;6.78;;
21091;SDS011;10704;42.678;23.288;2023-05-10T05:09:05;8.88;;;6.10;;
21091;SDS011;10704;42.678;23.288;2023-05-10T05:11:31;13.88;;;6.90;;
21091;SDS011;10704;42.678;23.288;2023-05-10T05:13:57;11.75;;;6.05;;
21091;SDS011;10704;42.678;23.288;2023-05-10T05:16:24;11.10;;;6.78;;
21091;SDS011;10704;42.678;23.288;2023-05-10T05:18:50;11.27;;;7.18;;
21091;SDS011;10704;42.678;23.288;2023-05-10T05:21:16;12.80;;;7.63;;
21091;SDS011;10704;42.678;23.288;2023-05-10T05:23:43;12.65;;;8.23;;
21091;SDS011;10704;42.678;23.288;2023-05-10T05:26:09;10.70;;;6.95;;
21091;SDS011;10704;42.678;23.288;2023-05-10T05:28:36;13.90;;;7.43;;
21091;SDS011;10704;42.678;23.288;2023-05-10T05:31:06;9.70;;;6.85;;
21091;SDS011;10704;42.678;23.288;2023-05-10T05:33:35;12.60;;;7.35;;
21091;SDS011;10704;42.678;23.288;2023-05-10T05:36:05;13.05;;;7.05;;
21091;SDS011;10704;42.678;23.288;2023-05-10T05:38:31;10.75;;;7.65;;
21091;SDS011;10704;42.678;23.288;2023-05-10T05:40:57;12.35;;;7.30;;
21091;SDS011;10704;42.678;23.288;2023-05-10T05:43:23;11.30;;;7.80;;
21091;SDS011;10704;42.678;23.288;2023-05-10T05:45:49;13.45;;;7.90;;
21091;SDS011;10704;42.678;23.288;2023-05-10T05:48:18;10.30;;;8.00;;
21091;SDS011;10704;42.678;23.288;2023-05-10T05:50:44;12.73;;;7.85;;
21091;SDS011;10704;42.678;23.288;2023-05-10T05:53:10;12.00;;;8.65;;
21091;SDS011;10704;42.678;23.288;2023-05-10T05:55:36;16.40;;;10.30;;
21091;SDS011;10704;42.678;23.288;2023-05-10T05:58:02;12.98;;;8.15;;
21091;SDS011;10704;42.678;23.288;2023-05-10T06:00:28;15.52;;;9.80;;
21091;SDS011;10704;42.678;23.288;2023-05-10T06:02:54;12.88;;;8.50;;
21091;SDS011;10704;42.678;23.288;2023-05-10T06:05:20;15.55;;;9.05;;
21091;SDS011;10704;42.678;23.288;2023-05-10T06:07:46;12.60;;;8.48;;
21091;SDS011;10704;42.678;23.288;2023-05-10T06:10:12;13.35;;;8.77;;
21091;SDS011;10704;42.678;23.288;2023-05-10T06:12:38;16.48;;;9.57;;
21091;SDS011;10704;42.678;23.288;2023-05-10T06:15:04;14.65;;;9.25;;
21091;SDS011;10704;42.678;23.288;2023-05-10T06:17:30;15.27;;;10.05;;
21091;SDS011;10704;42.678;23.288;2023-05-10T06:19:56;18.35;;;9.88;;
21091;SDS011;10704;42.678;23.288;2023-05-10T06:22:22;16.42;;;10.55;;
21091;SDS011;10704;42.678;23.288;2023-05-10T06:24:48;17.38;;;11.60;;
21091;SDS011;10704;42.678;23.288;2023-05-10T06:27:14;14.63;;;10.52;;
21091;SDS011;10704;42.678;23.288;2023-05-10T06:29:40;15.13;;;10.57;;
21091;SDS011;10704;42.678;23.288;2023-05-10T06:32:06;16.30;;;9.77;;
21091;SDS011;10704;42.678;23.288;2023-05-10T06:34:32;17.75;;;10.77;;
21091;SDS011;10704;42.678;23.288;2023-05-10T06:36:58;16.83;;;10.13;;
21091;SDS011;10704;42.678;23.288;2023-05-10T06:39:23;15.73;;;10.13;;
21091;SDS011;10704;42.678;23.288;2023-05-10T06:41:49;15.15;;;10.02;;
21091;SDS011;10704;42.678;23.288;2023-05-10T06:44:15;13.13;;;9.10;;
21091;SDS011;10704;42.678;23.288;2023-05-10T06:46:41;16.95;;;8.98;;
21091;SDS011;10704;42.678;23.288;2023-05-10T06:49:07;13.88;;;9.18;;
21091;SDS011;10704;42.678;23.288;2023-05-10T06:51:32;15.48;;;8.95;;
21091;SDS011;10704;42.678;23.288;2023-05-10T06:53:58;15.45;;;8.90;;
21091;SDS011;10704;42.678;23.288;2023-05-10T06:56:25;13.93;;;8.57;;
21091;SDS011;10704;42.678;23.288;2023-05-10T06:58:51;13.30;;;8.60;;
21091;SDS011;10704;42.678;23.288;2023-05-10T07:01:16;16.83;;;9.48;;
21091;SDS011;10704;42.678;23.288;2023-05-10T07:03:42;14.40;;;9.35;;
21091;SDS011;10704;42.678;23.288;2023-05-10T07:06:08;14.68;;;9.38;;
21091;SDS011;10704;42.678;23.288;2023-05-10T07:08:34;15.90;;;8.43;;
21091;SDS011;10704;42.678;23.288;2023-05-10T07:11:03;14.82;;;9.10;;
21091;SDS011;10704;42.678;23.288;2023-05-10T07:13:30;13.88;;;8.90;;
21091;SDS011;10704;42.678;23.288;2023-05-10T07:15:57;13.77;;;8.52;;
21091;SDS011;10704;42.678;23.288;2023-05-10T07:18:24;13.50;;;8.07;;
21091;SDS011;10704;42.678;23.288;2023-05-10T07:20:50;13.10;;;8.68;;
21091;SDS011;10704;42.678;23.288;2023-05-10T07:23:16;17.33;;;8.90;;
21091;SDS011;10704;42.678;23.288;2023-05-10T07:25:47;15.75;;;9.25;;
21091;SDS011;10704;42.678;23.288;2023-05-10T07:28:14;12.10;;;7.90;;
21091;SDS011;10704;42.678;23.288;2023-05-10T07:30:41;12.35;;;8.02;;
21091;SDS011;10704;42.678;23.288;2023-05-10T07:33:08;15.88;;;8.55;;
21091;SDS011;10704;42.678;23.288;2023-05-10T07:35:34;15.57;;;9.25;;
21091;SDS011;10704;42.678;23.288;2023-05-10T07:38:01;15.13;;;9.98;;
21091;SDS011;10704;42.678;23.288;2023-05-10T07:40:27;18.40;;;9.15;;
21091;SDS011;10704;42.678;23.288;2023-05-10T07:42:53;11.77;;;8.23;;
21091;SDS011;10704;42.678;23.288;2023-05-10T07:45:19;15.52;;;9.77;;
21091;SDS011;10704;42.678;23.288;2023-05-10T07:47:45;13.63;;;9.23;;
21091;SDS011;10704;42.678;23.288;2023-05-10T07:50:11;15.30;;;9.55;;
21091;SDS011;10704;42.678;23.288;2023-05-10T07:52:36;14.50;;;9.52;;
21091;SDS011;10704;42.678;23.288;2023-05-10T07:55:02;17.33;;;9.88;;
21091;SDS011;10704;42.678;23.288;2023-05-10T07:57:28;15.95;;;9.60;;
21091;SDS011;10704;42.678;23.288;2023-05-10T07:59:54;16.10;;;9.73;;
21091;SDS011;10704;42.678;23.288;2023-05-10T08:02:20;15.10;;;9.95;;
21091;SDS011;10704;42.678;23.288;2023-05-10T08:04:46;18.05;;;10.02;;
21091;SDS011;10704;42.678;23.288;2023-05-10T08:07:12;15.90;;;10.00;;
21091;SDS011;10704;42.678;23.288;2023-05-10T08:09:37;16.58;;;9.82;;
21091;SDS011;10704;42.678;23.288;2023-05-10T08:12:03;15.98;;;9.40;;
21091;SDS011;10704;42.678;23.288;2023-05-10T08:14:29;15.10;;;10.18;;
21091;SDS011;10704;42.678;23.288;2023-05-10T08:16:55;16.02;;;9.50;;
21091;SDS011;10704;42.678;23.288;2023-05-10T08:19:21;16.25;;;9.70;;
21091;SDS011;10704;42.678;23.288;2023-05-10T08:21:48;15.20;;;9.52;;
21091;SDS011;10704;42.678;23.288;2023-05-10T08:24:14;14.75;;;9.57;;
21091;SDS011;10704;42.678;23.288;2023-05-10T08:26:40;15.77;;;10.20;;
21091;SDS011;10704;42.678;23.288;2023-05-10T08:29:06;17.23;;;10.90;;
21091;SDS011;10704;42.678;23.288;2023-05-10T08:31:31;18.08;;;11.35;;
21091;SDS011;10704;42.678;23.288;2023-05-10T08:33:57;15.48;;;10.38;;
21091;SDS011;10704;42.678;23.288;2023-05-10T08:36:23;16.25;;;10.80;;
21091;SDS011;10704;42.678;23.288;2023-05-10T08:38:53;14.48;;;10.20;;
21091;SDS011;10704;42.678;23.288;2023-05-10T08:41:19;14.30;;;10.43;;
21091;SDS011;10704;42.678;23.288;2023-05-10T08:43:46;15.52;;;10.88;;
21091;SDS011;10704;42.678;23.288;2023-05-10T08:46:16;14.38;;;10.18;;
21091;SDS011;10704;42.678;23.288;2023-05-10T08:48:44;17.17;;;10.20;;
21091;SDS011;10704;42.678;23.288;2023-05-10T08:51:14;17.02;;;10.27;;
21091;SDS011;10704;42.678;23.288;2023-05-10T08:53:43;17.33;;;11.45;;
21091;SDS011;10704;42.678;23.288;2023-05-10T08:56:10;15.25;;;11.23;;
21091;SDS011;10704;42.678;23.288;2023-05-10T08:58:36;16.52;;;10.80;;
21091;SDS011;10704;42.678;23.288;2023-05-10T09:01:02;13.73;;;10.10;;
21091;SDS011;10704;42.678;23.288;2023-05-10T09:03:30;18.35;;;12.50;;
21091;SDS011;10704;42.678;23.288;2023-05-10T09:05:56;18.92;;;11.98;;
21091;SDS011;10704;42.678;23.288;2023-05-10T09:08:25;18.60;;;11.55;;
21091;SDS011;10704;42.678;23.288;2023-05-10T09:10:52;14.77;;;11.77;;
21091;SDS011;10704;42.678;23.288;2023-05-10T09:13:19;18.40;;;12.25;;
21091;SDS011;10704;42.678;23.288;2023-05-10T09:15:49;15.07;;;11.13;;
21091;SDS011;10704;42.678;23.288;2023-05-10T09:18:16;16.83;;;11.05;;
21091;SDS011;10704;42.678;23.288;2023-05-10T09:20:42;16.40;;;10.77;;
21091;SDS011;10704;42.678;23.288;2023-05-10T09:23:08;15.35;;;11.43;;
21091;SDS011;10704;42.678;23.288;2023-05-10T09:25:34;16.17;;;10.93;;
21091;SDS011;10704;42.678;23.288;2023-05-10T09:28:02;17.27;;;11.88;;
21091;SDS011;10704;42.678;23.288;2023-05-10T09:30:32;15.60;;;11.20;;
21091;SDS011;10704;42.678;23.288;2023-05-10T09:32:59;15.10;;;10.98;;
21091;SDS011;10704;42.678;23.288;2023-05-10T09:35:26;14.02;;;10.70;;
21091;SDS011;10704;42.678;23.288;2023-05-10T09:37:54;13.15;;;9.32;;
21091;SDS011;10704;42.678;23.288;2023-05-10T09:40:25;13.18;;;9.55;;
21091;SDS011;10704;42.678;23.288;2023-05-10T09:43:08;13.07;;;9.32;;
21091;SDS011;10704;42.678;23.288;2023-05-10T09:45:35;15.40;;;10.93;;
21091;SDS011;10704;42.678;23.288;2023-05-10T09:48:02;18.67;;;10.40;;
21091;SDS011;10704;42.678;23.288;2023-05-10T09:50:29;15.48;;;9.27;;
21091;SDS011;10704;42.678;23.288;2023-05-10T09:52:56;11.15;;;9.25;;
21091;SDS011;10704;42.678;23.288;2023-05-10T09:55:43;16.27;;;9.60;;
21091;SDS011;10704;42.678;23.288;2023-05-10T09:58:11;15.85;;;10.93;;
21091;SDS011;10704;42.678;23.288;2023-05-10T10:00:47;15.40;;;10.15;;
21091;SDS011;10704;42.678;23.288;2023-05-10T10:03:17;12.75;;;9.90;;
21091;SDS011;10704;42.678;23.288;2023-05-10T10:05:44;12.30;;;8.98;;
21091;SDS011;10704;42.678;23.288;2023-05-10T10:08:12;14.90;;;9.18;;
21091;SDS011;10704;42.678;23.288;2023-05-10T10:10:39;13.30;;;9.98;;
21091;SDS011;10704;42.678;23.288;2023-05-10T10:13:06;12.50;;;9.48;;
21091;SDS011;10704;42.678;23.288;2023-05-10T10:15:33;14.80;;;9.77;;
21091;SDS011;10704;42.678;23.288;2023-05-10T10:17:59;12.05;;;9.13;;
21091;SDS011;10704;42.678;23.288;2023-05-10T10:20:26;10.80;;;8.90;;
21091;SDS011;10704;42.678;23.288;2023-05-10T10:22:53;11.27;;;8.70;;
21091;SDS011;10704;42.678;23.288;2023-05-10T10:25:20;13.32;;;9.00;;
21091;SDS011;10704;42.678;23.288;2023-05-10T10:33:10;18.48;;;9.45;;
21091;SDS011;10704;42.678;23.288;2023-05-10T10:35:55;11.57;;;8.07;;
21091;SDS011;10704;42.678;23.288;2023-05-10T10:38:23;11.55;;;8.20;;
21091;SDS011;10704;42.678;23.288;2023-05-10T10:41:01;11.65;;;7.93;;
21091;SDS011;10704;42.678;23.288;2023-05-10T10:43:28;11.68;;;8.00;;
21091;SDS011;10704;42.678;23.288;2023-05-10T10:46:13;10.85;;;6.95;;
21091;SDS011;10704;42.678;23.288;2023-05-10T10:49:08;12.85;;;7.63;;
21091;SDS011;10704;42.678;23.288;2023-05-10T10:51:37;14.15;;;8.68;;
21091;SDS011;10704;42.678;23.288;2023-05-10T10:54:10;12.52;;;8.20;;
21091;SDS011;10704;42.678;23.288;2023-05-10T10:56:36;10.63;;;8.07;;
21091;SDS011;10704;42.678;23.288;2023-05-10T10:59:02;12.23;;;7.45;;
21091;SDS011;10704;42.678;23.288;2023-05-10T11:01:34;9.73;;;8.00;;
21091;SDS011;10704;42.678;23.288;2023-05-10T11:06:29;11.63;;;8.02;;
21091;SDS011;10704;42.678;23.288;2023-05-10T11:09:09;13.32;;;8.20;;
21091;SDS011;10704;42.678;23.288;2023-05-10T11:11:48;15.30;;;8.43;;
21091;SDS011;10704;42.678;23.288;2023-05-10T11:14:19;12.40;;;7.53;;
21091;SDS011;10704;42.678;23.288;2023-05-10T11:16:47;15.05;;;7.88;;
21091;SDS011;10704;42.678;23.288;2023-05-10T11:19:16;15.32;;;7.97;;
21091;SDS011;10704;42.678;23.288;2023-05-10T11:24:31;12.65;;;7.20;;
21091;SDS011;10704;42.678;23.288;2023-05-10T11:26:57;8.73;;;7.00;;
21091;SDS011;10704;42.678;23.288;2023-05-10T11:29:23;10.90;;;8.07;;
21091;SDS011;10704;42.678;23.288;2023-05-10T11:31:51;9.85;;;7.35;;
21091;SDS011;10704;42.678;23.288;2023-05-10T11:34:26;12.27;;;7.47;;
21091;SDS011;10704;42.678;23.288;2023-05-10T11:36:55;11.85;;;7.40;;
21091;SDS011;10704;42.678;23.288;2023-05-10T11:39:25;11.88;;;8.00;;
21091;SDS011;10704;42.678;23.288;2023-05-10T11:41:52;11.20;;;7.45;;
21091;SDS011;10704;42.678;23.288;2023-05-10T11:44:18;12.07;;;7.07;;
21091;SDS011;10704;42.678;23.288;2023-05-10T11:46:44;12.38;;;7.85;;
21091;SDS011;10704;42.678;23.288;2023-05-10T11:49:10;12.30;;;7.32;;
21091;SDS011;10704;42.678;23.288;2023-05-10T11:51:38;13.98;;;7.80;;
21091;SDS011;10704;42.678;23.288;2023-05-10T11:54:07;10.68;;;7.28;;
21091;SDS011;10704;42.678;23.288;2023-05-10T11:56:35;12.10;;;7.40;;
21091;SDS011;10704;42.678;23.288;2023-05-10T11:59:03;11.93;;;7.50;;
21091;SDS011;10704;42.678;23.288;2023-05-10T12:01:29;10.55;;;7.05;;
21091;SDS011;10704;42.678;23.288;2023-05-10T12:03:56;9.52;;;6.97;;
21091;SDS011;10704;42.678;23.288;2023-05-10T12:06:32;9.63;;;6.88;;
21091;SDS011;10704;42.678;23.288;2023-05-10T12:09:06;12.43;;;8.32;;
21091;SDS011;10704;42.678;23.288;2023-05-10T12:11:35;12.18;;;7.68;;
21091;SDS011;10704;42.678;23.288;2023-05-10T12:14:03;12.80;;;8.57;;
21091;SDS011;10704;42.678;23.288;2023-05-10T12:16:30;10.32;;;7.22;;
21091;SDS011;10704;42.678;23.288;2023-05-10T12:18:57;11.90;;;8.20;;
21091;SDS011;10704;42.678;23.288;2023-05-10T12:21:24;11.45;;;8.30;;
21091;SDS011;10704;42.678;23.288;2023-05-10T12:23:51;19.20;;;8.77;;
21091;SDS011;10704;42.678;23.288;2023-05-10T12:26:22;13.85;;;8.38;;
21091;SDS011;10704;42.678;23.288;2023-05-10T12:28:50;12.57;;;8.90;;
21091;SDS011;10704;42.678;23.288;2023-05-10T12:31:15;11.57;;;8.88;;
21091;SDS011;10704;42.678;23.288;2023-05-10T12:33:42;15.35;;;9.15;;
21091;SDS011;10704;42.678;23.288;2023-05-10T12:36:09;14.43;;;8.70;;
21091;SDS011;10704;42.678;23.288;2023-05-10T12:38:36;15.35;;;9.15;;
21091;SDS011;10704;42.678;23.288;2023-05-10T12:41:11;12.35;;;8.63;;
21091;SDS011;10704;42.678;23.288;2023-05-10T12:43:38;16.00;;;9.98;;
21091;SDS011;10704;42.678;23.288;2023-05-10T12:48:34;14.57;;;9.23;;
21091;SDS011;10704;42.678;23.288;2023-05-10T12:51:01;13.30;;;9.30;;
21091;SDS011;10704;42.678;23.288;2023-05-10T12:53:28;14.20;;;8.93;;
21091;SDS011;10704;42.678;23.288;2023-05-10T12:55:55;16.85;;;10.25;;
21091;SDS011;10704;42.678;23.288;2023-05-10T12:58:21;12.60;;;8.73;;
21091;SDS011;10704;42.678;23.288;2023-05-10T13:00:46;15.98;;;9.05;;
21091;SDS011;10704;42.678;23.288;2023-05-10T13:03:12;13.75;;;9.20;;
21091;SDS011;10704;42.678;23.288;2023-05-10T13:05:38;13.93;;;9.82;;
21091;SDS011;10704;42.678;23.288;2023-05-10T13:08:04;17.08;;;9.23;;
21091;SDS011;10704;42.678;23.288;2023-05-10T13:10:30;13.13;;;9.23;;
21091;SDS011;10704;42.678;23.288;2023-05-10T13:12:57;11.95;;;8.85;;
21091;SDS011;10704;42.678;23.288;2023-05-10T13:15:23;13.63;;;8.30;;
21091;SDS011;10704;42.678;23.288;2023-05-10T13:17:50;13.90;;;9.50;;
21091;SDS011;10704;42.678;23.288;2023-05-10T13:20:15;19.70;;;11.80;;
21091;SDS011;10704;42.678;23.288;2023-05-10T13:22:45;16.00;;;9.15;;
21091;SDS011;10704;42.678;23.288;2023-05-10T13:25:12;18.75;;;10.15;;
21091;SDS011;10704;42.678;23.288;2023-05-10T13:27:41;12.55;;;7.70;;
21091;SDS011;10704;42.678;23.288;2023-05-10T13:30:07;12.02;;;9.05;;
21091;SDS011;10704;42.678;23.288;2023-05-10T13:32:34;14.27;;;9.13;;
21091;SDS011;10704;42.678;23.288;2023-05-10T13:35:00;13.23;;;9.52;;
21091;SDS011;10704;42.678;23.288;2023-05-10T13:37:28;14.05;;;8.73;;
21091;SDS011;10704;42.678;23.288;2023-05-10T13:39:55;11.73;;;8.60;;
21091;SDS011;10704;42.678;23.288;2023-05-10T13:42:21;13.68;;;9.88;;
21091;SDS011;10704;42.678;23.288;2023-05-10T13:44:48;14.35;;;9.88;;
21091;SDS011;10704;42.678;23.288;2023-05-10T13:47:15;14.05;;;8.93;;
21091;SDS011;10704;42.678;23.288;2023-05-10T13:49:41;11.93;;;8.32;;
21091;SDS011;10704;42.678;23.288;2023-05-10T13:52:06;14.75;;;9.57;;
21091;SDS011;10704;42.678;23.288;2023-05-10T13:54:33;13.98;;;8.50;;
21091;SDS011;10704;42.678;23.288;2023-05-10T13:56:59;12.63;;;8.18;;
21091;SDS011;10704;42.678;23.288;2023-05-10T13:59:25;12.35;;;8.63;;
21091;SDS011;10704;42.678;23.288;2023-05-10T14:01:51;14.02;;;9.60;;
21091;SDS011;10704;42.678;23.288;2023-05-10T14:04:17;14.13;;;8.52;;
21091;SDS011;10704;42.678;23.288;2023-05-10T14:06:43;13.80;;;8.20;;
21091;SDS011;10704;42.678;23.288;2023-05-10T14:09:09;13.88;;;9.00;;
21091;SDS011;10704;42.678;23.288;2023-05-10T14:11:34;11.10;;;8.00;;
21091;SDS011;10704;42.678;23.288;2023-05-10T14:14:00;17.08;;;8.05;;
21091;SDS011;10704;42.678;23.288;2023-05-10T14:16:26;11.77;;;8.35;;
21091;SDS011;10704;42.678;23.288;2023-05-10T14:18:52;12.40;;;7.90;;
21091;SDS011;10704;42.678;23.288;2023-05-10T14:21:18;19.40;;;9.75;;
21091;SDS011;10704;42.678;23.288;2023-05-10T14:23:44;13.15;;;8.88;;
21091;SDS011;10704;42.678;23.288;2023-05-10T14:26:10;11.68;;;8.27;;
21091;SDS011;10704;42.678;23.288;2023-05-10T14:28:35;15.05;;;8.80;;
21091;SDS011;10704;42.678;23.288;2023-05-10T14:31:01;11.90;;;8.20;;
21091;SDS011;10704;42.678;23.288;2023-05-10T14:33:27;11.85;;;8.55;;
21091;SDS011;10704;42.678;23.288;2023-05-10T14:35:53;13.82;;;9.93;;
21091;SDS011;10704;42.678;23.288;2023-05-10T14:38:21;14.35;;;9.77;;
21091;SDS011;10704;42.678;23.288;2023-05-10T14:40:47;16.35;;;9.20;;
21091;SDS011;10704;42.678;23.288;2023-05-10T14:43:13;11.23;;;8.38;;
21091;SDS011;10704;42.678;23.288;2023-05-10T14:45:39;13.25;;;8.63;;
21091;SDS011;10704;42.678;23.288;2023-05-10T14:48:05;12.15;;;8.27;;
21091;SDS011;10704;42.678;23.288;2023-05-10T14:50:31;15.65;;;9.85;;
21091;SDS011;10704;42.678;23.288;2023-05-10T14:52:57;15.77;;;8.90;;
21091;SDS011;10704;42.678;23.288;2023-05-10T14:55:24;14.35;;;9.13;;
21091;SDS011;10704;42.678;23.288;2023-05-10T14:57:49;14.15;;;9.27;;
21091;SDS011;10704;42.678;23.288;2023-05-10T15:00:16;15.77;;;9.77;;
21091;SDS011;10704;42.678;23.288;2023-05-10T15:02:43;14.10;;;9.18;;